Time;durP1;ratioP1;P1;durP2;ratioP2;P2;SDS_P1;SDS_P2;PMS_P1;PMS_P2;Temp;Humidity;BMP_temperature;BMP_pressure;BME280_temperature;BME280_humidity;BME280_pressure;Samples;Min_cycle;Max_cycle;Signal;HPM_P1;HPM_P2
2022/05/29 00:01:58;;;;;;;;;3.75;2.00;;;;;11.75;52.48;100991.81;4973066;28;45467;-69
2022/05/29 00:04:24;;;;;;;;;11.75;11.50;;;;;11.72;52.12;101003.34;4973799;28;46244;-69
2022/05/29 00:06:53;;;;;;;;;5.00;2.75;;;;;11.70;52.52;100997.28;4974755;28;45936;-70
2022/05/29 00:09:25;;;;;;;;;2.00;2.00;;;;;11.67;52.90;101008.78;4974708;28;45388;-70
2022/05/29 00:11:51;;;;;;;;;4.00;2.00;;;;;11.63;53.10;100993.13;4972919;28;45450;-70
2022/05/29 00:14:17;;;;;;;;;1.25;1.25;;;;;11.56;53.13;100981.97;4973930;28;45386;-70
2022/05/29 00:16:42;;;;;;;;;2.75;2.75;;;;;11.53;53.80;100988.22;4972541;28;45304;-72
2022/05/29 00:19:08;;;;;;;;;4.50;3.00;;;;;11.50;53.05;100990.97;4972729;28;45326;-69
2022/05/29 00:21:36;;;;;;;;;5.00;4.00;;;;;11.47;52.91;100990.25;4973148;28;45651;-71
2022/05/29 00:24:02;;;;;;;;;3.75;3.75;;;;;11.42;53.23;100986.91;4973016;28;45513;-71
2022/05/29 00:26:27;;;;;;;;;2.00;2.00;;;;;11.45;53.34;100985.00;4970870;28;45436;-70
2022/05/29 00:28:52;;;;;;;;;3.00;3.00;;;;;11.44;53.71;100985.09;4989184;28;48559;-70
2022/05/29 00:31:18;;;;;;;;;3.00;3.00;;;;;11.39;53.52;100977.34;4976553;28;45544;-71
2022/05/29 00:33:43;;;;;;;;;5.75;5.75;;;;;11.37;53.69;100980.03;4974308;28;45979;-69
2022/05/29 00:36:11;;;;;;;;;2.75;2.50;;;;;11.35;53.83;100976.59;4975057;28;45306;-68
2022/05/29 00:38:43;;;;;;;;;4.00;2.25;;;;;11.31;53.88;100977.66;4974107;28;45394;-69
2022/05/29 00:41:27;;;;;;;;;2.00;2.00;;;;;11.28;53.59;100975.13;4975418;28;45427;-70
2022/05/29 00:44:08;;;;;;;;;3.75;3.00;;;;;11.25;54.42;100981.34;4974665;28;46147;-69
2022/05/29 00:46:35;;;;;;;;;3.75;3.75;;;;;11.22;54.64;100976.19;4977890;28;45421;-71
2022/05/29 00:49:06;;;;;;;;;1.75;1.75;;;;;11.18;54.07;100971.13;4978050;28;45441;-69
2022/05/29 00:51:35;;;;;;;;;4.00;2.25;;;;;11.15;54.39;100969.44;4975954;28;45222;-69
2022/05/29 00:54:03;;;;;;;;;2.00;2.00;;;;;11.06;55.13;100972.41;4973825;28;46210;-68
2022/05/29 00:56:28;;;;;;;;;3.50;3.50;;;;;11.03;54.77;100983.03;4974333;28;45396;-70
2022/05/29 00:58:54;;;;;;;;;2.00;2.00;;;;;10.97;55.35;100973.56;4974800;28;45453;-70
2022/05/29 01:01:19;;;;;;;;;4.50;3.00;;;;;10.91;54.97;100976.44;4975084;28;45581;-70
2022/05/29 01:03:44;;;;;;;;;2.00;2.00;;;;;10.87;55.47;100972.19;4975118;28;46139;-69
2022/05/29 01:06:10;;;;;;;;;4.50;2.00;;;;;10.81;55.87;100968.84;4975197;28;45274;-68
2022/05/29 01:08:37;;;;;;;;;1.50;1.50;;;;;10.75;55.31;100963.81;4975124;28;45293;-69
2022/05/29 01:11:31;;;;;;;;;3.00;1.50;;;;;10.81;55.08;100966.22;4975661;28;45276;-70
2022/05/29 01:14:28;;;;;;;;;2.00;2.00;;;;;10.75;55.19;100966.44;4980700;28;45226;-70
2022/05/29 01:17:07;;;;;;;;;2.00;2.00;;;;;10.74;55.91;100969.97;4977680;28;45289;-69
2022/05/29 01:19:38;;;;;;;;;2.50;2.50;;;;;10.73;55.60;100959.53;4975204;28;45347;-69
2022/05/29 01:22:04;;;;;;;;;1.75;1.75;;;;;10.66;56.38;100958.88;4975480;28;45315;-69
2022/05/29 01:25:03;;;;;;;;;2.00;2.00;;;;;10.59;56.66;100960.00;4977009;28;46030;-69
2022/05/29 01:27:38;;;;;;;;;2.75;2.75;;;;;10.55;56.54;100964.47;4974986;28;45407;-68
2022/05/29 01:30:17;;;;;;;;;2.50;2.00;;;;;10.50;56.45;100956.75;4976294;28;45279;-70
2022/05/29 01:33:06;;;;;;;;;1.75;1.75;;;;;10.45;57.56;100949.94;4975657;28;45463;-69
2022/05/29 01:35:43;;;;;;;;;2.75;2.75;;;;;10.42;56.69;100945.66;4973872;28;46121;-69
2022/05/29 01:38:15;;;;;;;;;5.75;3.75;;;;;10.42;57.38;100952.66;4974928;28;45266;-68
2022/05/29 01:40:51;;;;;;;;;3.00;1.50;;;;;10.41;57.99;100958.81;4973638;28;45493;-70
2022/05/29 01:43:36;;;;;;;;;2.50;2.50;;;;;10.35;57.65;100942.31;4973123;28;45464;-70
2022/05/29 01:46:07;;;;;;;;;3.50;1.75;;;;;10.32;58.24;100946.84;4974389;28;47166;-68
2022/05/29 01:49:07;;;;;;;;;4.50;3.25;;;;;10.30;58.21;100949.50;4974906;28;45216;-69
2022/05/29 01:51:42;;;;;;;;;4.75;2.00;;;;;10.26;57.81;100942.63;4953291;28;45427;-69
2022/05/29 01:54:19;;;;;;;;;5.50;3.00;;;;;10.22;58.32;100948.91;4974780;28;45319;-68
2022/05/29 01:56:58;;;;;;;;;2.00;2.00;;;;;10.14;58.91;100933.38;4973588;28;47186;-71
2022/05/29 01:59:33;;;;;;;;;2.50;2.50;;;;;10.13;59.02;100930.78;4973064;28;45142;-70
2022/05/29 02:02:09;;;;;;;;;4.75;3.00;;;;;10.07;59.27;100931.84;4973886;28;45296;-67
2022/05/29 02:04:39;;;;;;;;;2.50;2.50;;;;;10.07;58.70;100935.34;4974469;28;45313;-69
2022/05/29 02:10:04;;;;;;;;;1.25;1.25;;;;;10.07;59.33;100943.22;4973435;28;45318;-71
2022/05/29 02:12:31;;;;;;;;;3.00;3.00;;;;;10.03;59.41;100933.72;4973902;28;45398;-69
2022/05/29 02:15:02;;;;;;;;;2.50;2.50;;;;;10.00;60.48;100935.56;4975830;28;45425;-69
2022/05/29 02:17:38;;;;;;;;;3.75;3.75;;;;;9.97;59.71;100941.81;4975285;28;45348;-70
2022/05/29 02:20:15;;;;;;;;;4.50;3.25;;;;;9.97;59.83;100939.19;4973749;28;45222;-71
2022/05/29 02:22:45;;;;;;;;;2.25;2.25;;;;;9.97;60.35;100925.16;4975227;28;45363;-67
2022/05/29 02:25:19;;;;;;;;;3.00;3.00;;;;;9.96;59.90;100932.19;4972626;28;45374;-70
2022/05/29 02:28:08;;;;;;;;;2.50;2.50;;;;;9.95;60.46;100927.84;4973705;28;45377;-70
2022/05/29 02:30:45;;;;;;;;;3.00;3.00;;;;;9.91;60.69;100928.88;4973895;28;45284;-69
2022/05/29 02:33:49;;;;;;;;;2.25;2.00;;;;;9.89;60.89;100926.28;4972362;28;45436;-69
2022/05/29 02:36:29;;;;;;;;;3.25;2.25;;;;;9.86;60.68;100923.75;4979121;28;45419;-70
2022/05/29 02:39:19;;;;;;;;;2.50;2.50;;;;;9.84;60.77;100914.19;4973732;28;46899;-68
2022/05/29 02:42:00;;;;;;;;;3.00;3.00;;;;;9.82;61.28;100921.28;4974553;28;45426;-70
2022/05/29 02:44:31;;;;;;;;;5.00;4.75;;;;;9.78;61.71;100915.25;4974210;28;45244;-70
2022/05/29 02:47:33;;;;;;;;;4.50;2.75;;;;;9.76;61.36;100917.94;4973818;28;45368;-69
2022/05/29 02:50:17;;;;;;;;;0.50;0.50;;;;;9.77;61.33;100913.53;4992727;28;46160;-70
2022/05/29 02:52:43;;;;;;;;;3.25;3.25;;;;;9.65;61.91;100899.03;4978138;28;45164;-68
2022/05/29 02:55:08;;;;;;;;;5.50;5.50;;;;;9.67;61.51;100904.22;4973276;28;45326;-68
2022/05/29 02:57:34;;;;;;;;;6.25;6.25;;;;;9.68;61.59;100909.44;4973581;28;45281;-69
2022/05/29 03:00:11;;;;;;;;;3.75;3.75;;;;;9.61;61.96;100906.13;4974021;28;46168;-68
2022/05/29 03:03:27;;;;;;;;;3.00;3.00;;;;;9.61;62.09;100910.53;4975894;28;45330;-69
2022/05/29 03:05:55;;;;;;;;;4.00;4.00;;;;;9.56;62.33;100904.56;5005705;28;45352;-66
2022/05/29 03:08:39;;;;;;;;;5.00;5.00;;;;;9.51;62.79;100909.94;4972906;28;45504;-70
2022/05/29 03:11:15;;;;;;;;;5.00;5.00;;;;;9.46;62.51;100907.44;4973087;28;46636;-70
2022/05/29 03:14:05;;;;;;;;;4.25;4.25;;;;;9.41;63.39;100909.34;4971510;28;45407;-71
2022/05/29 03:16:52;;;;;;;;;7.75;5.00;;;;;9.35;62.72;100906.91;4972636;28;45339;-70
2022/05/29 03:19:41;;;;;;;;;7.00;5.00;;;;;9.33;63.51;100914.84;4971268;27;45362;-69
2022/05/29 03:22:25;;;;;;;;;3.75;3.75;;;;;9.32;63.63;100909.63;4972570;28;46456;-71
2022/05/29 03:25:12;;;;;;;;;4.75;4.75;;;;;9.31;63.19;100902.66;4972886;28;45447;-71
2022/05/29 03:27:43;;;;;;;;;4.75;4.75;;;;;9.28;63.04;100895.75;4974192;28;45244;-71
2022/05/29 03:30:29;;;;;;;;;8.50;6.25;;;;;9.26;63.76;100900.19;4984146;28;45480;-70
2022/05/29 03:33:01;;;;;;;;;5.50;5.00;;;;;9.26;63.66;100901.94;4992145;28;46428;-72
2022/05/29 03:35:30;;;;;;;;;8.00;6.50;;;;;9.24;63.69;100902.00;4979854;28;45396;-71
2022/05/29 03:37:58;;;;;;;;;7.00;3.75;;;;;9.23;63.84;100902.03;4978638;28;45349;-71
2022/05/29 03:40:26;;;;;;;;;5.00;3.75;;;;;9.18;65.18;100900.41;4992943;28;45512;-69
2022/05/29 03:42:52;;;;;;;;;5.25;3.50;;;;;9.16;64.24;100902.22;4985872;28;46138;-69
2022/05/29 03:45:17;;;;;;;;;5.00;5.00;;;;;9.12;64.62;100890.06;4992244;28;45368;-71
2022/05/29 03:47:43;;;;;;;;;4.50;4.50;;;;;9.10;64.12;100891.88;4988864;28;45373;-70
2022/05/29 03:50:14;;;;;;;;;3.00;3.00;;;;;9.11;64.70;100898.84;4976384;28;45324;-71
2022/05/29 03:52:39;;;;;;;;;6.00;4.50;;;;;9.13;64.62;100897.03;4977718;28;45443;-70
2022/05/29 03:55:06;;;;;;;;;8.00;5.00;;;;;9.09;64.25;100886.69;4972080;28;45362;-70
2022/05/29 03:57:31;;;;;;;;;5.00;5.00;;;;;9.10;64.25;100886.63;4970421;28;45281;-70
2022/05/29 03:59:56;;;;;;;;;4.00;4.00;;;;;9.07;64.54;100889.34;4972319;28;45607;-72
2022/05/29 04:02:22;;;;;;;;;5.50;5.00;;;;;9.10;65.35;100885.78;4972092;28;46066;-71
2022/05/29 04:04:47;;;;;;;;;6.50;4.50;;;;;9.07;63.88;100886.72;4975843;28;45319;-70
2022/05/29 04:07:13;;;;;;;;;4.00;4.00;;;;;9.05;65.01;100878.91;4975422;28;45286;-71
2022/05/29 04:12:22;;;;;;;;;4.00;4.00;;;;;9.01;64.53;100874.66;4977316;28;45391;-74
2022/05/29 04:14:48;;;;;;;;;4.50;4.50;;;;;9.11;64.74;100892.75;4977977;28;45351;-71
2022/05/29 04:17:16;;;;;;;;;4.00;4.00;;;;;9.08;64.69;100882.34;4978744;28;45266;-71
2022/05/29 04:19:44;;;;;;;;;5.25;4.00;;;;;8.99;64.85;100863.31;4978228;28;45174;-71
2022/05/29 04:22:16;;;;;;;;;5.00;5.00;;;;;9.14;64.31;100892.69;4975671;28;46941;-70
2022/05/29 04:24:41;;;;;;;;;4.50;4.25;;;;;9.17;64.59;100896.06;4975543;28;45235;-71
2022/05/29 04:27:13;;;;;;;;;6.75;5.00;;;;;9.18;64.79;100900.41;4975083;28;45374;-70
2022/05/29 04:29:39;;;;;;;;;5.00;5.00;;;;;9.15;64.91;100897.88;4976596;28;45442;-69
2022/05/29 04:34:53;;;;;;;;;4.50;4.50;;;;;9.08;65.27;100882.34;4977421;28;45272;-71
2022/05/29 04:37:18;;;;;;;;;7.25;5.00;;;;;9.11;65.37;100877.00;4974612;28;45333;-71
2022/05/29 04:39:43;;;;;;;;;4.00;4.00;;;;;9.20;65.40;100887.25;4974892;28;45679;-70
2022/05/29 04:42:10;;;;;;;;;4.50;4.00;;;;;9.20;65.18;100888.09;4974731;28;45952;-70
2022/05/29 04:44:36;;;;;;;;;4.50;4.25;;;;;9.22;65.22;100880.19;4974874;28;45263;-71
2022/05/29 04:47:02;;;;;;;;;2.75;2.75;;;;;9.22;65.38;100890.69;4975547;28;45385;-70
2022/05/29 04:49:27;;;;;;;;;5.00;5.00;;;;;9.28;65.06;100895.75;4985067;28;45645;-72
2022/05/29 04:51:53;;;;;;;;;6.50;4.00;;;;;9.31;65.56;100895.66;4974761;28;46032;-70
2022/05/29 04:54:18;;;;;;;;;6.25;4.25;;;;;9.35;65.03;100884.16;4979284;28;45388;-71
2022/05/29 04:56:48;;;;;;;;;4.75;4.00;;;;;9.39;65.11;100884.91;4980245;28;45453;-71
2022/05/29 04:59:13;;;;;;;;;4.25;4.25;;;;;9.48;65.17;100882.00;4987122;28;45566;-70
2022/05/29 05:01:39;;;;;;;;;7.00;5.00;;;;;9.69;64.62;100884.88;4983954;28;46172;-71
2022/05/29 05:04:04;;;;;;;;;5.50;4.25;;;;;10.03;64.15;100878.53;4990371;28;45423;-71
2022/05/29 05:06:30;;;;;;;;;3.25;3.25;;;;;10.38;63.70;100879.09;4984303;28;45372;-71
2022/05/29 05:08:55;;;;;;;;;4.00;4.00;;;;;10.77;62.48;100875.16;4974547;28;45428;-71
2022/05/29 05:11:20;;;;;;;;;6.00;4.00;;;;;11.14;61.58;100872.09;4974178;28;46352;-71
2022/05/29 05:13:46;;;;;;;;;6.75;3.75;;;;;11.49;60.54;100864.59;4974030;28;45483;-71
2022/05/29 05:16:11;;;;;;;;;3.00;3.00;;;;;11.84;60.33;100876.34;4977304;28;45592;-71
2022/05/29 05:18:37;;;;;;;;;3.00;3.00;;;;;12.13;58.96;100876.97;4974654;28;45406;-70
2022/05/29 05:21:06;;;;;;;;;3.00;3.00;;;;;12.30;58.38;100872.75;4973615;28;45552;-70
2022/05/29 05:23:32;;;;;;;;;3.00;3.00;;;;;12.49;58.13;100871.94;4973937;28;45392;-71
2022/05/29 05:25:58;;;;;;;;;3.75;3.75;;;;;12.59;57.92;100878.53;4974480;28;45221;-70
2022/05/29 05:28:23;;;;;;;;;4.00;4.00;;;;;12.68;57.19;100872.84;4974482;28;45238;-71
2022/05/29 05:30:48;;;;;;;;;4.00;3.25;;;;;12.70;56.81;100867.50;4974215;28;45538;-70
2022/05/29 05:33:15;;;;;;;;;1.75;1.75;;;;;12.81;56.53;100875.81;4973929;28;45317;-69
2022/05/29 05:35:40;;;;;;;;;3.50;3.50;;;;;12.90;56.59;100879.84;4974375;28;45280;-71
2022/05/29 05:38:07;;;;;;;;;3.00;3.00;;;;;12.93;56.41;100877.03;4976111;28;45588;-70
2022/05/29 05:40:32;;;;;;;;;3.00;3.00;;;;;13.05;56.00;100874.78;4972345;28;46908;-71
2022/05/29 05:42:58;;;;;;;;;3.00;3.00;;;;;13.05;55.73;100877.41;4974497;28;45373;-71
2022/05/29 05:45:23;;;;;;;;;3.25;3.25;;;;;12.97;55.67;100872.47;4974327;28;45705;-70
2022/05/29 05:47:48;;;;;;;;;3.00;3.00;;;;;12.89;55.94;100874.59;4973935;28;45504;-69
2022/05/29 05:50:15;;;;;;;;;4.50;4.25;;;;;12.80;55.77;100873.25;4972079;28;48150;-70
2022/05/29 05:52:40;;;;;;;;;4.50;2.00;;;;;12.77;55.96;100870.75;4973328;28;45255;-70
2022/05/29 05:55:10;;;;;;;;;5.00;3.75;;;;;12.62;56.00;100878.41;4973460;28;45258;-70
2022/05/29 05:57:36;;;;;;;;;3.00;3.00;;;;;12.46;56.12;100886.16;4973739;28;45383;-70
2022/05/29 06:00:04;;;;;;;;;1.00;1.00;;;;;12.25;56.27;100883.50;4974416;28;46479;-72
2022/05/29 06:02:30;;;;;;;;;3.50;2.25;;;;;12.06;56.06;100879.91;4974733;28;45315;-71
2022/05/29 06:04:55;;;;;;;;;4.50;4.50;;;;;11.90;57.11;100879.66;4973940;27;45423;-71
2022/05/29 06:07:21;;;;;;;;;3.50;3.50;;;;;11.76;57.17;100882.84;4981941;27;45445;-71
2022/05/29 06:09:46;;;;;;;;;3.00;3.00;;;;;11.62;58.43;100886.91;4986652;27;45849;-70
2022/05/29 06:12:11;;;;;;;;;2.50;2.50;;;;;11.51;57.88;100882.03;4978089;28;45309;-72
2022/05/29 06:14:37;;;;;;;;;2.00;2.00;;;;;11.34;58.42;100872.19;4978717;28;45249;-70
2022/05/29 06:17:03;;;;;;;;;5.00;4.00;;;;;11.24;58.41;100876.94;4975178;28;45442;-72
2022/05/29 06:19:29;;;;;;;;;2.00;2.00;;;;;11.20;58.62;100875.34;4974191;28;46950;-71
2022/05/29 06:21:54;;;;;;;;;1.75;1.75;;;;;11.21;58.87;100871.78;4976706;28;45342;-71
2022/05/29 06:24:20;;;;;;;;;4.00;4.00;;;;;11.17;59.50;100871.97;4976558;28;45379;-70
2022/05/29 06:26:45;;;;;;;;;3.25;3.25;;;;;11.13;58.86;100876.47;4973984;28;45592;-74
2022/05/29 06:29:11;;;;;;;;;3.75;3.00;;;;;11.10;59.66;100873.97;4974407;28;45739;-72
2022/05/29 06:31:36;;;;;;;;;4.75;3.00;;;;;11.09;59.70;100880.16;4972729;28;45354;-71
2022/05/29 06:34:02;;;;;;;;;1.75;1.75;;;;;11.02;59.93;100873.41;4973927;28;45712;-71
2022/05/29 06:36:27;;;;;;;;;3.25;3.00;;;;;10.90;60.08;100858.91;4974680;28;45296;-70
2022/05/29 06:38:55;;;;;;;;;3.50;3.50;;;;;11.04;59.97;100879.47;4973462;28;46415;-73
2022/05/29 06:41:22;;;;;;;;;4.50;3.00;;;;;11.09;59.57;100872.25;4976921;28;45274;-73
2022/05/29 06:43:50;;;;;;;;;2.00;2.00;;;;;11.18;59.60;100885.06;4978323;28;45296;-72
2022/05/29 06:46:16;;;;;;;;;3.50;3.50;;;;;11.15;59.72;100863.28;4977126;28;45276;-70
2022/05/29 06:48:42;;;;;;;;;4.75;3.00;;;;;11.37;59.31;100884.34;4975773;28;46387;-70
2022/05/29 06:51:21;;;;;;;;;5.75;2.75;;;;;11.40;58.60;100874.56;4973078;28;45528;-70
2022/05/29 06:53:49;;;;;;;;;5.75;4.00;;;;;11.49;59.06;100877.75;4973102;28;45447;-70
2022/05/29 06:56:17;;;;;;;;;5.00;3.00;;;;;11.49;58.74;100878.59;4973322;28;45641;-70
2022/05/29 06:58:42;;;;;;;;;3.00;3.00;;;;;11.50;58.23;100874.22;4971986;28;48166;-69
2022/05/29 07:09:23;;;;;;;;;1.75;1.75;;;;;11.62;57.53;100862.31;4973043;28;45993;-72
2022/05/29 07:11:54;;;;;;;;;5.00;3.00;;;;;11.57;57.24;100837.91;4972626;28;45332;-69
2022/05/29 07:14:20;;;;;;;;;4.00;2.75;;;;;11.89;55.99;100872.69;4973077;28;45414;-70
2022/05/29 07:16:45;;;;;;;;;3.75;3.00;;;;;12.06;55.93;100864.94;4973159;28;45292;-71
2022/05/29 07:19:13;;;;;;;;;1.00;1.00;;;;;12.23;55.66;100872.16;4971935;28;46057;-70
2022/05/29 07:21:40;;;;;;;;;3.50;2.25;;;;;12.33;54.68;100869.97;4973141;28;45292;-69
2022/05/29 07:24:06;;;;;;;;;4.75;3.00;;;;;12.35;54.85;100873.41;4974749;28;45286;-71
2022/05/29 07:26:32;;;;;;;;;2.00;2.00;;;;;12.29;54.15;100876.31;4975381;28;45353;-71
2022/05/29 07:28:57;;;;;;;;;3.50;3.00;;;;;12.21;53.92;100857.31;4973301;28;46203;-69
2022/05/29 07:31:23;;;;;;;;;2.50;2.00;;;;;12.33;53.68;100871.78;4973526;28;45301;-71
2022/05/29 07:33:49;;;;;;;;;2.00;2.00;;;;;12.38;54.10;100857.44;4975962;28;45484;-72
2022/05/29 07:36:17;;;;;;;;;3.75;2.25;;;;;12.63;53.77;100852.88;4975072;28;45444;-76
2022/05/29 07:38:43;;;;;;;;;2.00;2.00;;;;;12.93;52.87;100869.13;4982445;28;45353;-73
2022/05/29 07:43:53;;;;;;;;;1.50;1.50;;;;;13.32;50.79;100864.72;4976196;28;45487;-69
2022/05/29 07:46:20;;;;;;;;;1.75;1.75;;;;;13.51;50.37;100853.31;4976156;28;45414;-72
2022/05/29 07:48:45;;;;;;;;;3.00;2.00;;;;;13.77;49.73;100853.81;4977035;27;46026;-72
2022/05/29 07:51:10;;;;;;;;;2.00;2.00;;;;;13.94;49.06;100855.63;4978475;28;45428;-70
2022/05/29 07:53:37;;;;;;;;;1.50;1.50;;;;;14.16;48.46;100861.53;4975456;28;45189;-70
2022/05/29 07:56:03;;;;;;;;;3.00;2.00;;;;;14.17;47.96;100852.69;4976458;28;45750;-71
2022/05/29 07:58:29;;;;;;;;;4.00;4.00;;;;;14.32;48.05;100866.03;4978003;28;45331;-69
2022/05/29 08:00:54;;;;;;;;;3.00;1.75;;;;;14.46;46.72;100868.00;4975007;28;45369;-72
2022/05/29 08:03:22;;;;;;;;;1.25;1.25;;;;;14.54;47.23;100864.94;4974777;28;45506;-73
2022/05/29 08:05:48;;;;;;;;;1.00;1.00;;;;;14.71;46.68;100859.63;4975080;27;45510;-71
2022/05/29 08:08:13;;;;;;;;;2.00;2.00;;;;;14.91;45.86;100860.38;4974693;28;45346;-70
2022/05/29 08:10:41;;;;;;;;;1.00;1.00;;;;;14.95;44.58;100853.97;4976077;28;45378;-73
2022/05/29 08:13:07;;;;;;;;;1.00;1.00;;;;;14.98;45.54;100861.75;4976913;28;45232;-70
2022/05/29 08:15:33;;;;;;;;;2.00;2.00;;;;;14.94;44.94;100852.25;4975290;28;45286;-72
2022/05/29 08:17:58;;;;;;;;;16.25;14.25;;;;;15.01;45.98;100843.03;4983489;28;45732;-70
2022/05/29 08:20:26;;;;;;;;;2.00;2.00;;;;;15.06;45.02;100834.00;4974713;28;45247;-71
2022/05/29 08:22:51;;;;;;;;;2.00;2.00;;;;;15.08;45.23;100837.41;4974830;28;45406;-73
2022/05/29 08:30:52;;;;;;;;;2.25;2.25;;;;;15.41;45.45;100829.38;4974487;28;45356;-74
2022/05/29 08:33:20;;;;;;;;;4.00;2.00;;;;;15.53;44.93;100835.75;4975267;28;45386;-72
2022/05/29 08:35:48;;;;;;;;;2.00;1.75;;;;;15.56;43.07;100837.41;4975184;28;45490;-74
2022/05/29 08:38:16;;;;;;;;;5.50;3.00;;;;;15.62;44.44;100835.22;4974265;28;46247;-73
2022/05/29 08:40:51;;;;;;;;;9.25;8.75;;;;;15.83;43.06;100824.31;4973509;28;45336;-71
2022/05/29 08:43:26;;;;;;;;;5.50;4.50;;;;;15.67;43.04;100791.69;4974471;28;45337;-71
2022/05/29 08:45:52;;;;;;;;;4.25;2.75;;;;;15.81;43.16;100830.66;4974959;28;45329;-71
2022/05/29 08:48:21;;;;;;;;;2.00;2.00;;;;;15.62;42.64;100831.75;4974612;28;45958;-70
2022/05/29 08:50:59;;;;;;;;;1.50;1.50;;;;;15.54;43.38;100834.81;4974949;28;45341;-71
2022/05/29 08:53:42;;;;;;;;;2.00;2.00;;;;;15.59;43.25;100823.97;4975576;28;45338;-71
2022/05/29 08:56:15;;;;;;;;;2.75;1.50;;;;;15.54;43.31;100818.91;4977825;28;45328;-72
2022/05/29 08:59:21;;;;;;;;;3.00;1.00;;;;;15.55;43.33;100825.09;4974451;28;45656;-73
2022/05/29 09:02:06;;;;;;;;;2.00;2.00;;;;;15.48;43.51;100816.59;4961706;28;45975;-72
2022/05/29 09:04:38;;;;;;;;;1.75;1.75;;;;;15.34;43.30;100828.84;4973587;28;45364;-70
2022/05/29 09:07:07;;;;;;;;;2.00;1.00;;;;;15.17;42.60;100827.13;4974287;28;45417;-71
2022/05/29 09:09:52;;;;;;;;;1.00;1.00;;;;;15.11;43.50;100816.88;4975736;28;46389;-71
2022/05/29 09:12:23;;;;;;;;;3.00;1.00;;;;;15.32;42.56;100820.13;4975461;28;45384;-70
2022/05/29 09:14:52;;;;;;;;;1.25;1.25;;;;;15.59;42.79;100819.50;4976073;28;45289;-70
2022/05/29 09:17:35;;;;;;;;;3.00;3.00;;;;;15.83;41.85;100810.22;4976687;28;45378;-70
2022/05/29 09:20:09;;;;;;;;;4.00;4.00;;;;;16.09;41.72;100814.00;4974367;28;46380;-69
2022/05/29 09:22:39;;;;;;;;;2.50;1.00;;;;;16.44;41.43;100803.06;4976167;28;45490;-68
2022/05/29 09:25:34;;;;;;;;;0.00;0.00;;;;;16.75;40.57;100805.63;4988465;28;44769;-70
2022/05/29 09:28:15;;;;;;;;;3.25;2.50;;;;;16.69;39.87;100804.19;4977883;28;45329;-71
2022/05/29 09:30:40;;;;;;;;;1.25;1.25;;;;;16.78;40.49;100800.09;4978777;28;45388;-68
2022/05/29 09:33:20;;;;;;;;;4.00;3.00;;;;;16.74;39.30;100799.44;4974539;28;45342;-70
2022/05/29 09:35:54;;;;;;;;;1.50;1.25;;;;;16.62;39.07;100792.25;4974220;28;45247;-69
2022/05/29 09:38:34;;;;;;;;;1.75;0.25;;;;;16.49;39.48;100785.03;4975701;28;45317;-68
2022/05/29 09:41:13;;;;;;;;;2.00;2.00;;;;;16.69;40.17;100788.25;4975837;28;45494;-69
2022/05/29 09:43:39;;;;;;;;;1.00;1.00;;;;;16.96;39.52;100791.91;4955666;28;45494;-68
2022/05/29 09:46:22;;;;;;;;;2.75;2.00;;;;;17.01;38.20;100788.06;4956998;28;45322;-69
2022/05/29 09:51:44;;;;;;;;;1.00;1.00;;;;;17.01;38.48;100793.38;4954538;28;45464;-70
2022/05/29 09:54:22;;;;;;;;;2.00;2.00;;;;;17.01;38.58;100787.19;4954475;28;45275;-69
2022/05/29 09:56:48;;;;;;;;;2.25;1.00;;;;;16.89;38.71;100781.69;4954968;28;45245;-70
2022/05/29 09:59:18;;;;;;;;;2.00;2.00;;;;;16.84;39.43;100790.88;4956325;28;45181;-71
2022/05/29 10:01:45;;;;;;;;;1.25;1.00;;;;;16.71;39.50;100790.81;4956574;28;45661;-69
2022/05/29 10:04:12;;;;;;;;;1.00;1.00;;;;;16.59;39.79;100779.16;4955646;28;45245;-70
2022/05/29 10:06:44;;;;;;;;;4.00;2.00;;;;;16.64;40.18;100782.38;4954921;28;45511;-70
2022/05/29 10:09:21;;;;;;;;;3.00;2.00;;;;;16.63;40.21;100784.19;4956257;28;45439;-71
2022/05/29 10:11:49;;;;;;;;;4.00;4.00;;;;;16.64;40.37;100775.28;4954125;28;46858;-70
2022/05/29 10:14:38;;;;;;;;;3.00;3.00;;;;;16.99;39.18;100779.34;4954915;28;45469;-69
2022/05/29 10:17:30;;;;;;;;;1.00;1.00;;;;;17.06;39.36;100774.47;4955030;28;45325;-69
2022/05/29 10:19:56;;;;;;;;;1.25;1.25;;;;;17.11;38.92;100775.03;4973589;28;45366;-72
2022/05/29 10:22:32;;;;;;;;;2.00;2.00;;;;;17.10;39.10;100783.09;4995942;28;45394;-70
2022/05/29 10:24:59;;;;;;;;;2.00;2.00;;;;;17.06;38.38;100771.81;5002240;28;45398;-69
2022/05/29 10:27:33;;;;;;;;;0.50;0.00;;;;;17.22;37.58;100771.69;4971643;28;45643;-70
2022/05/29 10:30:25;;;;;;;;;2.00;2.00;;;;;17.23;37.74;100773.38;4974416;28;45465;-69
2022/05/29 10:33:04;;;;;;;;;5.00;2.25;;;;;17.07;38.55;100769.06;4962221;28;46373;-71
2022/05/29 10:35:32;;;;;;;;;1.00;1.00;;;;;17.06;38.69;100764.69;4971995;28;45391;-68
2022/05/29 10:38:25;;;;;;;;;2.50;2.25;;;;;17.09;38.84;100776.91;4961023;28;45490;-71
2022/05/29 10:40:53;;;;;;;;;1.00;1.00;;;;;16.85;38.43;100744.78;4954245;28;45181;-69
2022/05/29 10:43:37;;;;;;;;;3.00;2.00;;;;;17.01;39.08;100771.25;4968758;28;46213;-68
2022/05/29 10:46:18;;;;;;;;;0.00;0.00;;;;;17.14;37.84;100756.22;4956769;28;45265;-71
2022/05/29 10:49:19;;;;;;;;;6.75;4.00;;;;;17.21;38.40;100759.34;4954347;28;45403;-71
2022/05/29 10:52:03;;;;;;;;;2.00;2.00;;;;;17.42;38.11;100753.56;4957595;28;45522;-71
2022/05/29 10:54:54;;;;;;;;;1.25;1.25;;;;;17.62;37.76;100758.38;4951684;28;45371;-71
2022/05/29 10:57:42;;;;;;;;;3.25;2.00;;;;;17.62;36.80;100749.56;4953608;28;45483;-72
2022/05/29 11:00:18;;;;;;;;;3.50;2.00;;;;;17.58;36.99;100746.25;4960567;28;45528;-69
2022/05/29 11:03:21;;;;;;;;;1.75;1.75;;;;;17.65;36.15;100736.91;4953575;28;45369;-69
2022/05/29 11:06:01;;;;;;;;;3.50;2.00;;;;;17.95;37.47;100741.06;4953472;28;45350;-69
2022/05/29 11:08:57;;;;;;;;;2.00;2.00;;;;;18.09;35.38;100745.50;4954994;28;45345;-69
2022/05/29 11:11:57;;;;;;;;;4.00;4.00;;;;;18.15;35.00;100741.56;4953517;28;45379;-68
2022/05/29 11:14:39;;;;;;;;;2.25;2.25;;;;;18.32;35.48;100736.84;4954217;28;45166;-73
2022/05/29 11:17:15;;;;;;;;;5.00;5.00;;;;;18.55;35.20;100729.88;4973261;28;46116;-70
2022/05/29 11:20:06;;;;;;;;;0.00;0.00;;;;;18.63;35.03;100726.69;4957877;28;45385;-71
2022/05/29 11:22:43;;;;;;;;;6.50;5.00;;;;;18.63;35.53;100713.34;4964812;28;45520;-70
2022/05/29 11:25:40;;;;;;;;;2.75;2.75;;;;;18.89;35.25;100719.47;4954193;28;45355;-72
2022/05/29 11:28:24;;;;;;;;;3.50;3.25;;;;;19.12;34.92;100716.94;4958872;28;45409;-70
2022/05/29 11:31:01;;;;;;;;;2.25;2.00;;;;;19.20;34.82;100724.38;4972279;28;45429;-72
2022/05/29 11:34:08;;;;;;;;;1.75;1.75;;;;;19.16;34.26;100712.25;4970057;28;45192;-70
2022/05/29 11:37:02;;;;;;;;;3.00;3.00;;;;;19.15;35.09;100715.88;4999641;28;45402;-72
2022/05/29 11:39:45;;;;;;;;;2.00;2.00;;;;;19.35;34.51;100709.91;4968091;28;47188;-72
2022/05/29 11:42:16;;;;;;;;;1.50;1.50;;;;;19.34;33.82;100683.31;4968762;28;45423;-71
2022/05/29 11:44:56;;;;;;;;;2.00;2.00;;;;;19.54;33.92;100711.16;4952528;28;45288;-71
2022/05/29 11:53:34;;;;;;;;;2.50;0.00;;;;;20.02;31.57;100691.50;4973134;28;45363;-70
2022/05/29 11:56:03;;;;;;;;;1.00;1.00;;;;;20.14;31.20;100681.66;4967385;28;45488;-70
2022/05/29 11:58:42;;;;;;;;;3.00;3.00;;;;;20.29;32.02;100674.25;4967255;28;45352;-69
2022/05/29 12:01:17;;;;;;;;;2.25;2.25;;;;;20.25;31.95;100671.00;4971719;28;48398;-71
2022/05/29 12:03:49;;;;;;;;;1.75;1.75;;;;;20.00;32.02;100677.44;4970530;28;45248;-69
2022/05/29 12:06:32;;;;;;;;;1.00;1.00;;;;;19.83;32.29;100663.56;4966250;27;45416;-71
2022/05/29 12:09:07;;;;;;;;;1.25;1.25;;;;;19.66;31.21;100670.19;4969674;28;45485;-72
2022/05/29 12:11:48;;;;;;;;;1.50;1.50;;;;;19.64;31.16;100655.28;4964120;28;46418;-72
2022/05/29 12:14:16;;;;;;;;;1.50;1.50;;;;;19.65;30.74;100654.31;4971787;28;45589;-72
2022/05/29 12:16:47;;;;;;;;;4.00;3.00;;;;;19.68;31.56;100641.56;4956416;28;45275;-70
2022/05/29 12:19:19;;;;;;;;;2.50;1.25;;;;;20.00;31.26;100646.22;4955693;28;45240;-71
2022/05/29 12:22:04;;;;;;;;;3.00;3.00;;;;;20.05;30.19;100658.38;4952684;28;46887;-70
2022/05/29 12:24:35;;;;;;;;;2.00;2.00;;;;;19.73;29.90;100656.38;4953824;28;45451;-71
2022/05/29 12:27:15;;;;;;;;;2.50;2.50;;;;;19.43;31.22;100650.63;4955173;28;45986;-70